sensor_id;sensor_type;location;lat;lon;timestamp;P1;durP1;ratioP1;P2;durP2;ratioP2
6947;SDS011;3513;47.664;9.162;2022-12-01T00:00:32;41.73;;;19.20;;
6947;SDS011;3513;47.664;9.162;2022-12-01T00:02:58;34.60;;;18.30;;
6947;SDS011;3513;47.664;9.162;2022-12-01T00:05:24;38.77;;;18.90;;
6947;SDS011;3513;47.664;9.162;2022-12-01T00:07:49;38.27;;;19.27;;
6947;SDS011;3513;47.664;9.162;2022-12-01T00:10:15;35.33;;;19.20;;
6947;SDS011;3513;47.664;9.162;2022-12-01T00:12:49;40.17;;;19.23;;
6947;SDS011;3513;47.664;9.162;2022-12-01T00:15:18;44.40;;;20.13;;
6947;SDS011;3513;47.664;9.162;2022-12-01T00:17:44;42.23;;;20.03;;
6947;SDS011;3513;47.664;9.162;2022-12-01T00:20:11;38.47;;;18.37;;
6947;SDS011;3513;47.664;9.162;2022-12-01T00:22:40;31.00;;;16.80;;
6947;SDS011;3513;47.664;9.162;2022-12-01T00:25:10;35.60;;;17.97;;
6947;SDS011;3513;47.664;9.162;2022-12-01T00:27:37;36.13;;;18.97;;
6947;SDS011;3513;47.664;9.162;2022-12-01T00:30:03;36.00;;;18.27;;
6947;SDS011;3513;47.664;9.162;2022-12-01T00:32:30;33.93;;;18.10;;
6947;SDS011;3513;47.664;9.162;2022-12-01T00:34:56;40.17;;;19.20;;
6947;SDS011;3513;47.664;9.162;2022-12-01T00:37:21;38.33;;;19.50;;
6947;SDS011;3513;47.664;9.162;2022-12-01T00:39:47;42.40;;;20.87;;
6947;SDS011;3513;47.664;9.162;2022-12-01T00:42:12;43.47;;;21.93;;
6947;SDS011;3513;47.664;9.162;2022-12-01T00:44:38;45.60;;;19.83;;
6947;SDS011;3513;47.664;9.162;2022-12-01T00:47:04;39.47;;;20.50;;
6947;SDS011;3513;47.664;9.162;2022-12-01T00:49:29;38.23;;;20.17;;
6947;SDS011;3513;47.664;9.162;2022-12-01T00:51:55;40.20;;;19.40;;
6947;SDS011;3513;47.664;9.162;2022-12-01T00:54:21;36.27;;;19.30;;
6947;SDS011;3513;47.664;9.162;2022-12-01T00:56:47;39.60;;;17.97;;
6947;SDS011;3513;47.664;9.162;2022-12-01T00:59:12;40.10;;;19.20;;
6947;SDS011;3513;47.664;9.162;2022-12-01T01:01:38;41.43;;;20.60;;
6947;SDS011;3513;47.664;9.162;2022-12-01T01:04:04;40.77;;;20.73;;
6947;SDS011;3513;47.664;9.162;2022-12-01T01:06:30;38.67;;;19.63;;
6947;SDS011;3513;47.664;9.162;2022-12-01T01:08:55;40.50;;;20.37;;
6947;SDS011;3513;47.664;9.162;2022-12-01T01:11:21;41.30;;;19.77;;
6947;SDS011;3513;47.664;9.162;2022-12-01T01:13:46;45.93;;;21.57;;
6947;SDS011;3513;47.664;9.162;2022-12-01T01:16:13;38.93;;;20.17;;
6947;SDS011;3513;47.664;9.162;2022-12-01T01:18:43;44.40;;;22.00;;
6947;SDS011;3513;47.664;9.162;2022-12-01T01:21:11;45.33;;;21.10;;
6947;SDS011;3513;47.664;9.162;2022-12-01T01:23:38;38.17;;;18.60;;
6947;SDS011;3513;47.664;9.162;2022-12-01T01:26:06;35.83;;;19.20;;
6947;SDS011;3513;47.664;9.162;2022-12-01T01:28:33;38.30;;;18.37;;
6947;SDS011;3513;47.664;9.162;2022-12-01T01:30:58;38.37;;;19.23;;
6947;SDS011;3513;47.664;9.162;2022-12-01T01:33:28;38.20;;;19.03;;
6947;SDS011;3513;47.664;9.162;2022-12-01T01:35:57;41.60;;;18.80;;
6947;SDS011;3513;47.664;9.162;2022-12-01T01:38:24;40.60;;;17.93;;
6947;SDS011;3513;47.664;9.162;2022-12-01T01:40:49;41.80;;;19.33;;
6947;SDS011;3513;47.664;9.162;2022-12-01T01:43:16;37.40;;;19.23;;
6947;SDS011;3513;47.664;9.162;2022-12-01T01:46:02;42.50;;;17.40;;
6947;SDS011;3513;47.664;9.162;2022-12-01T01:48:28;39.27;;;19.23;;
6947;SDS011;3513;47.664;9.162;2022-12-01T01:50:54;34.60;;;18.70;;
6947;SDS011;3513;47.664;9.162;2022-12-01T01:53:20;36.27;;;17.90;;
6947;SDS011;3513;47.664;9.162;2022-12-01T01:55:46;38.37;;;18.13;;
6947;SDS011;3513;47.664;9.162;2022-12-01T01:58:11;36.10;;;18.00;;
6947;SDS011;3513;47.664;9.162;2022-12-01T02:00:38;35.77;;;17.30;;
6947;SDS011;3513;47.664;9.162;2022-12-01T02:03:07;37.53;;;17.70;;
6947;SDS011;3513;47.664;9.162;2022-12-01T02:05:35;37.00;;;17.30;;
6947;SDS011;3513;47.664;9.162;2022-12-01T02:08:03;33.37;;;17.20;;
6947;SDS011;3513;47.664;9.162;2022-12-01T02:10:33;37.13;;;17.90;;
6947;SDS011;3513;47.664;9.162;2022-12-01T02:13:20;36.13;;;17.70;;
6947;SDS011;3513;47.664;9.162;2022-12-01T02:18:41;36.50;;;17.30;;
6947;SDS011;3513;47.664;9.162;2022-12-01T02:32:29;35.33;;;17.33;;
6947;SDS011;3513;47.664;9.162;2022-12-01T02:38:13;41.73;;;18.13;;
6947;SDS011;3513;47.664;9.162;2022-12-01T02:40:40;37.53;;;18.70;;
6947;SDS011;3513;47.664;9.162;2022-12-01T02:43:14;43.50;;;21.70;;
6947;SDS011;3513;47.664;9.162;2022-12-01T02:48:35;38.00;;;18.67;;
6947;SDS011;3513;47.664;9.162;2022-12-01T02:51:12;35.17;;;18.37;;
6947;SDS011;3513;47.664;9.162;2022-12-01T02:53:41;37.50;;;17.93;;
6947;SDS011;3513;47.664;9.162;2022-12-01T02:56:09;40.53;;;18.93;;
6947;SDS011;3513;47.664;9.162;2022-12-01T02:58:37;43.00;;;21.23;;
6947;SDS011;3513;47.664;9.162;2022-12-01T03:06:23;36.00;;;19.27;;
6947;SDS011;3513;47.664;9.162;2022-12-01T03:11:49;37.50;;;19.27;;
6947;SDS011;3513;47.664;9.162;2022-12-01T03:14:40;38.10;;;18.37;;
6947;SDS011;3513;47.664;9.162;2022-12-01T03:17:13;39.40;;;20.50;;
6947;SDS011;3513;47.664;9.162;2022-12-01T03:19:59;36.07;;;18.03;;
6947;SDS011;3513;47.664;9.162;2022-12-01T03:22:55;36.27;;;18.90;;
6947;SDS011;3513;47.664;9.162;2022-12-01T03:25:27;33.20;;;18.13;;
6947;SDS011;3513;47.664;9.162;2022-12-01T03:27:54;38.53;;;20.07;;
6947;SDS011;3513;47.664;9.162;2022-12-01T03:30:23;43.00;;;18.30;;
6947;SDS011;3513;47.664;9.162;2022-12-01T03:32:51;34.77;;;19.03;;
6947;SDS011;3513;47.664;9.162;2022-12-01T03:35:23;40.30;;;19.67;;
6947;SDS011;3513;47.664;9.162;2022-12-01T03:38:00;45.47;;;18.90;;
6947;SDS011;3513;47.664;9.162;2022-12-01T03:40:33;39.10;;;19.30;;
6947;SDS011;3513;47.664;9.162;2022-12-01T03:43:06;36.67;;;17.60;;
6947;SDS011;3513;47.664;9.162;2022-12-01T03:48:24;37.53;;;17.87;;
6947;SDS011;3513;47.664;9.162;2022-12-01T03:53:38;34.77;;;16.50;;
6947;SDS011;3513;47.664;9.162;2022-12-01T03:56:08;32.33;;;16.73;;
6947;SDS011;3513;47.664;9.162;2022-12-01T03:58:41;34.50;;;16.33;;
6947;SDS011;3513;47.664;9.162;2022-12-01T04:01:11;34.53;;;17.20;;
6947;SDS011;3513;47.664;9.162;2022-12-01T04:03:36;36.20;;;18.20;;
6947;SDS011;3513;47.664;9.162;2022-12-01T04:06:02;34.83;;;17.47;;
6947;SDS011;3513;47.664;9.162;2022-12-01T04:08:28;35.80;;;18.70;;
6947;SDS011;3513;47.664;9.162;2022-12-01T04:10:54;35.40;;;17.60;;
6947;SDS011;3513;47.664;9.162;2022-12-01T04:13:20;37.07;;;18.13;;
6947;SDS011;3513;47.664;9.162;2022-12-01T04:15:50;39.20;;;18.93;;
6947;SDS011;3513;47.664;9.162;2022-12-01T04:18:17;43.80;;;20.27;;
6947;SDS011;3513;47.664;9.162;2022-12-01T04:20:46;36.33;;;17.40;;
6947;SDS011;3513;47.664;9.162;2022-12-01T04:23:12;38.20;;;17.67;;
6947;SDS011;3513;47.664;9.162;2022-12-01T04:25:58;37.50;;;18.00;;
6947;SDS011;3513;47.664;9.162;2022-12-01T04:28:25;38.13;;;20.10;;
6947;SDS011;3513;47.664;9.162;2022-12-01T04:30:51;43.63;;;20.30;;
6947;SDS011;3513;47.664;9.162;2022-12-01T04:33:17;39.00;;;18.77;;
6947;SDS011;3513;47.664;9.162;2022-12-01T04:35:43;38.30;;;19.40;;
6947;SDS011;3513;47.664;9.162;2022-12-01T04:38:09;36.87;;;16.93;;
6947;SDS011;3513;47.664;9.162;2022-12-01T04:40:34;39.33;;;19.43;;
6947;SDS011;3513;47.664;9.162;2022-12-01T04:43:02;40.20;;;19.67;;
6947;SDS011;3513;47.664;9.162;2022-12-01T04:45:28;42.63;;;20.53;;
6947;SDS011;3513;47.664;9.162;2022-12-01T04:47:53;39.97;;;18.30;;
6947;SDS011;3513;47.664;9.162;2022-12-01T04:50:19;38.57;;;18.37;;
6947;SDS011;3513;47.664;9.162;2022-12-01T04:52:44;39.50;;;19.03;;
6947;SDS011;3513;47.664;9.162;2022-12-01T04:55:10;40.63;;;18.47;;
6947;SDS011;3513;47.664;9.162;2022-12-01T04:57:39;40.03;;;18.13;;
6947;SDS011;3513;47.664;9.162;2022-12-01T05:00:05;35.77;;;18.97;;
6947;SDS011;3513;47.664;9.162;2022-12-01T05:02:37;38.47;;;18.87;;
6947;SDS011;3513;47.664;9.162;2022-12-01T05:05:03;43.27;;;19.80;;
6947;SDS011;3513;47.664;9.162;2022-12-01T05:07:31;46.93;;;19.67;;
6947;SDS011;3513;47.664;9.162;2022-12-01T05:09:56;37.87;;;19.03;;
6947;SDS011;3513;47.664;9.162;2022-12-01T05:12:22;38.10;;;20.13;;
6947;SDS011;3513;47.664;9.162;2022-12-01T05:14:48;39.90;;;21.10;;
6947;SDS011;3513;47.664;9.162;2022-12-01T05:17:13;45.57;;;19.57;;
6947;SDS011;3513;47.664;9.162;2022-12-01T05:19:39;40.07;;;19.70;;
6947;SDS011;3513;47.664;9.162;2022-12-01T05:22:23;41.13;;;19.23;;
6947;SDS011;3513;47.664;9.162;2022-12-01T05:24:48;38.77;;;19.70;;
6947;SDS011;3513;47.664;9.162;2022-12-01T05:27:14;42.27;;;20.33;;
6947;SDS011;3513;47.664;9.162;2022-12-01T05:29:40;45.30;;;21.00;;
6947;SDS011;3513;47.664;9.162;2022-12-01T05:32:05;50.67;;;21.00;;
6947;SDS011;3513;47.664;9.162;2022-12-01T05:34:31;39.57;;;19.57;;
6947;SDS011;3513;47.664;9.162;2022-12-01T05:36:56;40.50;;;20.13;;
6947;SDS011;3513;47.664;9.162;2022-12-01T05:39:22;48.97;;;24.07;;
6947;SDS011;3513;47.664;9.162;2022-12-01T05:41:47;44.17;;;22.37;;
6947;SDS011;3513;47.664;9.162;2022-12-01T05:44:13;43.53;;;21.30;;
6947;SDS011;3513;47.664;9.162;2022-12-01T05:46:38;44.77;;;21.20;;
6947;SDS011;3513;47.664;9.162;2022-12-01T05:49:04;52.57;;;25.40;;
6947;SDS011;3513;47.664;9.162;2022-12-01T05:51:30;51.90;;;21.27;;
6947;SDS011;3513;47.664;9.162;2022-12-01T05:53:57;45.07;;;21.90;;
6947;SDS011;3513;47.664;9.162;2022-12-01T05:56:23;51.50;;;22.50;;
6947;SDS011;3513;47.664;9.162;2022-12-01T05:58:49;48.97;;;23.37;;
6947;SDS011;3513;47.664;9.162;2022-12-01T06:01:14;49.70;;;22.47;;
6947;SDS011;3513;47.664;9.162;2022-12-01T06:03:40;52.10;;;24.60;;
6947;SDS011;3513;47.664;9.162;2022-12-01T06:06:05;47.30;;;23.47;;
6947;SDS011;3513;47.664;9.162;2022-12-01T06:08:31;47.10;;;22.00;;
6947;SDS011;3513;47.664;9.162;2022-12-01T06:10:57;53.87;;;24.17;;
6947;SDS011;3513;47.664;9.162;2022-12-01T06:13:22;47.93;;;23.00;;
6947;SDS011;3513;47.664;9.162;2022-12-01T06:16:01;52.77;;;23.80;;
6947;SDS011;3513;47.664;9.162;2022-12-01T06:18:32;50.97;;;22.90;;
6947;SDS011;3513;47.664;9.162;2022-12-01T06:20:59;55.50;;;24.10;;
6947;SDS011;3513;47.664;9.162;2022-12-01T06:23:25;54.40;;;26.10;;
6947;SDS011;3513;47.664;9.162;2022-12-01T06:25:51;48.07;;;23.10;;
6947;SDS011;3513;47.664;9.162;2022-12-01T06:28:16;52.07;;;23.67;;
6947;SDS011;3513;47.664;9.162;2022-12-01T06:30:42;48.33;;;22.80;;
6947;SDS011;3513;47.664;9.162;2022-12-01T06:33:07;57.50;;;25.43;;
6947;SDS011;3513;47.664;9.162;2022-12-01T06:35:34;56.47;;;27.30;;
6947;SDS011;3513;47.664;9.162;2022-12-01T06:38:00;50.50;;;24.07;;
6947;SDS011;3513;47.664;9.162;2022-12-01T06:40:26;43.63;;;22.57;;
6947;SDS011;3513;47.664;9.162;2022-12-01T06:42:52;48.53;;;23.53;;
6947;SDS011;3513;47.664;9.162;2022-12-01T06:45:17;62.27;;;26.20;;
6947;SDS011;3513;47.664;9.162;2022-12-01T06:47:43;42.47;;;22.83;;
6947;SDS011;3513;47.664;9.162;2022-12-01T06:50:09;59.70;;;25.60;;
6947;SDS011;3513;47.664;9.162;2022-12-01T06:52:36;48.67;;;25.03;;
6947;SDS011;3513;47.664;9.162;2022-12-01T06:55:02;57.13;;;24.97;;
6947;SDS011;3513;47.664;9.162;2022-12-01T06:57:29;55.33;;;25.77;;
6947;SDS011;3513;47.664;9.162;2022-12-01T06:59:55;45.63;;;22.87;;
6947;SDS011;3513;47.664;9.162;2022-12-01T07:02:21;56.47;;;26.70;;
6947;SDS011;3513;47.664;9.162;2022-12-01T07:04:46;57.47;;;26.73;;
6947;SDS011;3513;47.664;9.162;2022-12-01T07:07:12;55.70;;;25.50;;
6947;SDS011;3513;47.664;9.162;2022-12-01T07:09:38;55.07;;;27.67;;
6947;SDS011;3513;47.664;9.162;2022-12-01T07:12:03;53.13;;;24.00;;
6947;SDS011;3513;47.664;9.162;2022-12-01T07:14:29;53.40;;;24.73;;
6947;SDS011;3513;47.664;9.162;2022-12-01T07:16:55;55.13;;;25.47;;
6947;SDS011;3513;47.664;9.162;2022-12-01T07:19:22;55.47;;;26.00;;
6947;SDS011;3513;47.664;9.162;2022-12-01T07:21:47;55.97;;;26.30;;
6947;SDS011;3513;47.664;9.162;2022-12-01T07:24:13;50.40;;;23.80;;
6947;SDS011;3513;47.664;9.162;2022-12-01T07:26:39;53.87;;;25.20;;
6947;SDS011;3513;47.664;9.162;2022-12-01T07:29:08;55.07;;;26.67;;
6947;SDS011;3513;47.664;9.162;2022-12-01T07:31:34;55.33;;;26.10;;
6947;SDS011;3513;47.664;9.162;2022-12-01T07:34:01;54.30;;;25.10;;
6947;SDS011;3513;47.664;9.162;2022-12-01T07:36:27;63.57;;;28.50;;
6947;SDS011;3513;47.664;9.162;2022-12-01T07:38:53;58.10;;;26.47;;
6947;SDS011;3513;47.664;9.162;2022-12-01T07:41:18;58.20;;;26.90;;
6947;SDS011;3513;47.664;9.162;2022-12-01T07:43:44;56.30;;;27.40;;
6947;SDS011;3513;47.664;9.162;2022-12-01T07:46:18;64.70;;;27.23;;
6947;SDS011;3513;47.664;9.162;2022-12-01T07:48:45;75.80;;;28.80;;
6947;SDS011;3513;47.664;9.162;2022-12-01T07:51:12;57.43;;;26.80;;
6947;SDS011;3513;47.664;9.162;2022-12-01T07:53:46;58.07;;;27.10;;
6947;SDS011;3513;47.664;9.162;2022-12-01T07:56:16;63.00;;;27.20;;
6947;SDS011;3513;47.664;9.162;2022-12-01T07:58:42;61.70;;;29.63;;
6947;SDS011;3513;47.664;9.162;2022-12-01T08:01:09;64.80;;;28.80;;
6947;SDS011;3513;47.664;9.162;2022-12-01T08:03:36;55.60;;;27.10;;
6947;SDS011;3513;47.664;9.162;2022-12-01T08:06:03;60.30;;;26.83;;
6947;SDS011;3513;47.664;9.162;2022-12-01T08:08:30;53.00;;;24.47;;
6947;SDS011;3513;47.664;9.162;2022-12-01T08:11:00;56.03;;;28.23;;
6947;SDS011;3513;47.664;9.162;2022-12-01T08:13:27;61.77;;;27.90;;
6947;SDS011;3513;47.664;9.162;2022-12-01T08:15:53;55.53;;;26.43;;
6947;SDS011;3513;47.664;9.162;2022-12-01T08:18:19;57.63;;;27.63;;
6947;SDS011;3513;47.664;9.162;2022-12-01T08:20:44;68.67;;;30.17;;
6947;SDS011;3513;47.664;9.162;2022-12-01T08:23:10;65.93;;;28.77;;
6947;SDS011;3513;47.664;9.162;2022-12-01T08:25:36;56.80;;;27.10;;
6947;SDS011;3513;47.664;9.162;2022-12-01T08:28:01;64.43;;;29.43;;
6947;SDS011;3513;47.664;9.162;2022-12-01T08:30:27;58.80;;;28.17;;
6947;SDS011;3513;47.664;9.162;2022-12-01T08:32:53;58.70;;;26.87;;
6947;SDS011;3513;47.664;9.162;2022-12-01T08:35:20;52.30;;;25.57;;
6947;SDS011;3513;47.664;9.162;2022-12-01T08:37:46;56.57;;;27.73;;
6947;SDS011;3513;47.664;9.162;2022-12-01T08:40:11;64.10;;;27.90;;
6947;SDS011;3513;47.664;9.162;2022-12-01T08:42:37;52.63;;;27.70;;
6947;SDS011;3513;47.664;9.162;2022-12-01T08:45:03;49.90;;;25.67;;
6947;SDS011;3513;47.664;9.162;2022-12-01T08:47:29;58.73;;;29.00;;
6947;SDS011;3513;47.664;9.162;2022-12-01T08:49:54;57.10;;;26.27;;
6947;SDS011;3513;47.664;9.162;2022-12-01T08:52:20;60.07;;;26.97;;
6947;SDS011;3513;47.664;9.162;2022-12-01T08:54:45;59.23;;;26.63;;
6947;SDS011;3513;47.664;9.162;2022-12-01T08:57:11;56.27;;;27.00;;
6947;SDS011;3513;47.664;9.162;2022-12-01T08:59:37;59.20;;;27.57;;
6947;SDS011;3513;47.664;9.162;2022-12-01T09:02:02;61.80;;;27.40;;
6947;SDS011;3513;47.664;9.162;2022-12-01T09:04:28;58.77;;;24.57;;
6947;SDS011;3513;47.664;9.162;2022-12-01T09:06:54;59.83;;;26.80;;
6947;SDS011;3513;47.664;9.162;2022-12-01T09:09:22;58.50;;;25.20;;
6947;SDS011;3513;47.664;9.162;2022-12-01T09:11:50;47.00;;;23.33;;
6947;SDS011;3513;47.664;9.162;2022-12-01T09:14:19;57.63;;;24.67;;
6947;SDS011;3513;47.664;9.162;2022-12-01T09:16:46;48.07;;;24.60;;
6947;SDS011;3513;47.664;9.162;2022-12-01T09:19:13;56.23;;;26.13;;
6947;SDS011;3513;47.664;9.162;2022-12-01T09:21:40;59.73;;;25.87;;
6947;SDS011;3513;47.664;9.162;2022-12-01T09:24:09;50.87;;;24.87;;
6947;SDS011;3513;47.664;9.162;2022-12-01T09:26:35;53.10;;;23.30;;
6947;SDS011;3513;47.664;9.162;2022-12-01T09:29:02;50.20;;;24.03;;
6947;SDS011;3513;47.664;9.162;2022-12-01T09:31:30;49.80;;;23.80;;
6947;SDS011;3513;47.664;9.162;2022-12-01T09:33:57;46.90;;;24.03;;
6947;SDS011;3513;47.664;9.162;2022-12-01T09:36:29;52.47;;;25.40;;
6947;SDS011;3513;47.664;9.162;2022-12-01T09:38:57;63.17;;;23.00;;
6947;SDS011;3513;47.664;9.162;2022-12-01T09:41:34;55.10;;;27.03;;
6947;SDS011;3513;47.664;9.162;2022-12-01T09:44:06;58.77;;;26.10;;
6947;SDS011;3513;47.664;9.162;2022-12-01T09:46:49;48.93;;;23.53;;
6947;SDS011;3513;47.664;9.162;2022-12-01T09:50:20;52.30;;;24.60;;
6947;SDS011;3513;47.664;9.162;2022-12-01T09:52:18;51.00;;;24.77;;
6947;SDS011;3513;47.664;9.162;2022-12-01T09:54:45;55.53;;;23.27;;
6947;SDS011;3513;47.664;9.162;2022-12-01T09:59:52;44.73;;;21.80;;
6947;SDS011;3513;47.664;9.162;2022-12-01T10:02:21;43.90;;;22.17;;
6947;SDS011;3513;47.664;9.162;2022-12-01T10:05:00;48.73;;;22.77;;
6947;SDS011;3513;47.664;9.162;2022-12-01T10:07:30;48.27;;;22.27;;
6947;SDS011;3513;47.664;9.162;2022-12-01T10:12:39;47.73;;;23.77;;
6947;SDS011;3513;47.664;9.162;2022-12-01T10:20:24;49.13;;;23.07;;
6947;SDS011;3513;47.664;9.162;2022-12-01T10:23:16;46.93;;;22.17;;
6947;SDS011;3513;47.664;9.162;2022-12-01T10:26:13;48.03;;;21.20;;
6947;SDS011;3513;47.664;9.162;2022-12-01T10:31:49;51.17;;;22.90;;
6947;SDS011;3513;47.664;9.162;2022-12-01T10:34:29;41.67;;;21.10;;
6947;SDS011;3513;47.664;9.162;2022-12-01T10:36:59;40.03;;;19.63;;
6947;SDS011;3513;47.664;9.162;2022-12-01T10:41:59;40.47;;;20.80;;
6947;SDS011;3513;47.664;9.162;2022-12-01T10:44:37;37.90;;;19.37;;
6947;SDS011;3513;47.664;9.162;2022-12-01T10:47:04;42.13;;;20.90;;
6947;SDS011;3513;47.664;9.162;2022-12-01T10:49:43;40.43;;;18.67;;
6947;SDS011;3513;47.664;9.162;2022-12-01T10:52:26;44.30;;;22.83;;
6947;SDS011;3513;47.664;9.162;2022-12-01T10:54:57;44.60;;;21.53;;
6947;SDS011;3513;47.664;9.162;2022-12-01T10:57:23;40.77;;;20.80;;
6947;SDS011;3513;47.664;9.162;2022-12-01T11:02:29;48.60;;;23.03;;
6947;SDS011;3513;47.664;9.162;2022-12-01T11:04:57;45.00;;;19.63;;
6947;SDS011;3513;47.664;9.162;2022-12-01T11:07:31;40.87;;;19.77;;
6947;SDS011;3513;47.664;9.162;2022-12-01T11:15:50;36.63;;;19.13;;
6947;SDS011;3513;47.664;9.162;2022-12-01T11:23:33;40.00;;;18.23;;
6947;SDS011;3513;47.664;9.162;2022-12-01T11:26:09;50.43;;;21.10;;
6947;SDS011;3513;47.664;9.162;2022-12-01T11:28:58;42.40;;;19.60;;
6947;SDS011;3513;47.664;9.162;2022-12-01T11:31:39;48.90;;;21.50;;
6947;SDS011;3513;47.664;9.162;2022-12-01T11:34:15;39.60;;;19.90;;
6947;SDS011;3513;47.664;9.162;2022-12-01T11:36:54;41.70;;;21.20;;
6947;SDS011;3513;47.664;9.162;2022-12-01T11:39:24;35.47;;;20.10;;
6947;SDS011;3513;47.664;9.162;2022-12-01T11:41:57;49.83;;;23.03;;
6947;SDS011;3513;47.664;9.162;2022-12-01T11:44:24;41.03;;;19.93;;
6947;SDS011;3513;47.664;9.162;2022-12-01T11:46:50;42.30;;;21.13;;
6947;SDS011;3513;47.664;9.162;2022-12-01T11:49:20;46.57;;;21.87;;
6947;SDS011;3513;47.664;9.162;2022-12-01T11:51:48;42.77;;;20.77;;
6947;SDS011;3513;47.664;9.162;2022-12-01T11:54:17;39.20;;;19.83;;
6947;SDS011;3513;47.664;9.162;2022-12-01T11:56:49;36.50;;;19.47;;
6947;SDS011;3513;47.664;9.162;2022-12-01T11:59:26;41.50;;;18.93;;
6947;SDS011;3513;47.664;9.162;2022-12-01T12:20:44;44.80;;;21.83;;
6947;SDS011;3513;47.664;9.162;2022-12-01T12:26:27;48.27;;;21.93;;
6947;SDS011;3513;47.664;9.162;2022-12-01T12:31:33;34.63;;;18.67;;
6947;SDS011;3513;47.664;9.162;2022-12-01T12:34:25;40.33;;;19.67;;
6947;SDS011;3513;47.664;9.162;2022-12-01T12:44:55;36.13;;;20.13;;
6947;SDS011;3513;47.664;9.162;2022-12-01T12:47:47;41.50;;;18.00;;
6947;SDS011;3513;47.664;9.162;2022-12-01T12:50:30;38.63;;;20.93;;
6947;SDS011;3513;47.664;9.162;2022-12-01T12:53:08;36.77;;;18.60;;
6947;SDS011;3513;47.664;9.162;2022-12-01T12:55:41;40.80;;;18.70;;
6947;SDS011;3513;47.664;9.162;2022-12-01T12:58:13;40.40;;;21.10;;
6947;SDS011;3513;47.664;9.162;2022-12-01T13:00:54;33.40;;;19.10;;
6947;SDS011;3513;47.664;9.162;2022-12-01T13:06:05;40.27;;;19.53;;
6947;SDS011;3513;47.664;9.162;2022-12-01T13:08:49;35.53;;;18.60;;
6947;SDS011;3513;47.664;9.162;2022-12-01T13:11:22;35.93;;;17.27;;
6947;SDS011;3513;47.664;9.162;2022-12-01T13:16:54;34.67;;;16.93;;
6947;SDS011;3513;47.664;9.162;2022-12-01T13:19:29;37.70;;;18.87;;
6947;SDS011;3513;47.664;9.162;2022-12-01T13:21:59;34.60;;;17.53;;
6947;SDS011;3513;47.664;9.162;2022-12-01T13:24:28;36.27;;;17.63;;
6947;SDS011;3513;47.664;9.162;2022-12-01T13:26:59;35.93;;;17.87;;
6947;SDS011;3513;47.664;9.162;2022-12-01T13:29:32;40.60;;;19.70;;
6947;SDS011;3513;47.664;9.162;2022-12-01T13:31:59;36.23;;;17.73;;
6947;SDS011;3513;47.664;9.162;2022-12-01T13:34:31;41.57;;;19.80;;
6947;SDS011;3513;47.664;9.162;2022-12-01T13:37:03;34.57;;;17.87;;
6947;SDS011;3513;47.664;9.162;2022-12-01T13:39:30;44.83;;;18.17;;
6947;SDS011;3513;47.664;9.162;2022-12-01T13:45:30;38.10;;;18.70;;
6947;SDS011;3513;47.664;9.162;2022-12-01T13:58:39;34.50;;;17.00;;
6947;SDS011;3513;47.664;9.162;2022-12-01T14:06:47;32.23;;;16.17;;
6947;SDS011;3513;47.664;9.162;2022-12-01T14:14:36;31.47;;;16.03;;
6947;SDS011;3513;47.664;9.162;2022-12-01T14:17:04;34.10;;;18.40;;
6947;SDS011;3513;47.664;9.162;2022-12-01T14:19:34;33.63;;;17.00;;
6947;SDS011;3513;47.664;9.162;2022-12-01T14:22:04;38.27;;;17.00;;
6947;SDS011;3513;47.664;9.162;2022-12-01T14:24:35;36.77;;;18.33;;
6947;SDS011;3513;47.664;9.162;2022-12-01T14:27:04;39.67;;;18.27;;
6947;SDS011;3513;47.664;9.162;2022-12-01T14:32:03;38.60;;;17.97;;
6947;SDS011;3513;47.664;9.162;2022-12-01T14:34:29;34.77;;;17.40;;
6947;SDS011;3513;47.664;9.162;2022-12-01T14:37:05;38.73;;;18.43;;
6947;SDS011;3513;47.664;9.162;2022-12-01T14:39:47;34.70;;;17.27;;
6947;SDS011;3513;47.664;9.162;2022-12-01T14:42:36;50.47;;;17.97;;
6947;SDS011;3513;47.664;9.162;2022-12-01T14:45:31;35.00;;;18.60;;
6947;SDS011;3513;47.664;9.162;2022-12-01T14:48:13;38.20;;;19.60;;
6947;SDS011;3513;47.664;9.162;2022-12-01T14:50:49;41.77;;;16.20;;
6947;SDS011;3513;47.664;9.162;2022-12-01T14:53:20;31.73;;;16.90;;
6947;SDS011;3513;47.664;9.162;2022-12-01T14:55:49;40.33;;;18.97;;
6947;SDS011;3513;47.664;9.162;2022-12-01T14:58:27;34.47;;;17.03;;
6947;SDS011;3513;47.664;9.162;2022-12-01T15:01:05;39.17;;;18.87;;
6947;SDS011;3513;47.664;9.162;2022-12-01T15:03:37;38.00;;;18.50;;
6947;SDS011;3513;47.664;9.162;2022-12-01T15:06:06;37.93;;;18.73;;
6947;SDS011;3513;47.664;9.162;2022-12-01T15:08:32;45.47;;;18.50;;
6947;SDS011;3513;47.664;9.162;2022-12-01T15:11:00;40.00;;;20.20;;
6947;SDS011;3513;47.664;9.162;2022-12-01T15:13:29;46.17;;;20.27;;
6947;SDS011;3513;47.664;9.162;2022-12-01T15:15:58;46.60;;;19.83;;
6947;SDS011;3513;47.664;9.162;2022-12-01T15:18:29;47.27;;;18.97;;
6947;SDS011;3513;47.664;9.162;2022-12-01T15:21:15;38.57;;;18.33;;
6947;SDS011;3513;47.664;9.162;2022-12-01T15:26:33;49.53;;;21.67;;
6947;SDS011;3513;47.664;9.162;2022-12-01T15:31:38;47.80;;;19.67;;
6947;SDS011;3513;47.664;9.162;2022-12-01T15:34:04;35.90;;;18.97;;
6947;SDS011;3513;47.664;9.162;2022-12-01T15:36:37;42.07;;;20.10;;
6947;SDS011;3513;47.664;9.162;2022-12-01T15:39:03;45.70;;;20.60;;
6947;SDS011;3513;47.664;9.162;2022-12-01T15:41:30;49.27;;;20.83;;
6947;SDS011;3513;47.664;9.162;2022-12-01T15:43:58;39.93;;;20.00;;
6947;SDS011;3513;47.664;9.162;2022-12-01T15:46:31;45.70;;;21.30;;
6947;SDS011;3513;47.664;9.162;2022-12-01T15:49:07;41.03;;;19.37;;
6947;SDS011;3513;47.664;9.162;2022-12-01T15:51:44;45.23;;;20.73;;
6947;SDS011;3513;47.664;9.162;2022-12-01T15:54:15;46.37;;;21.77;;
6947;SDS011;3513;47.664;9.162;2022-12-01T15:56:44;55.83;;;21.40;;
6947;SDS011;3513;47.664;9.162;2022-12-01T16:01:37;40.93;;;20.77;;
6947;SDS011;3513;47.664;9.162;2022-12-01T16:04:05;38.70;;;19.00;;
6947;SDS011;3513;47.664;9.162;2022-12-01T16:06:55;44.47;;;21.17;;
6947;SDS011;3513;47.664;9.162;2022-12-01T16:09:33;38.37;;;20.50;;
6947;SDS011;3513;47.664;9.162;2022-12-01T16:12:11;39.43;;;20.00;;
6947;SDS011;3513;47.664;9.162;2022-12-01T16:14:53;39.07;;;19.20;;
6947;SDS011;3513;47.664;9.162;2022-12-01T16:17:19;35.90;;;19.50;;
6947;SDS011;3513;47.664;9.162;2022-12-01T16:19:45;43.47;;;19.07;;
6947;SDS011;3513;47.664;9.162;2022-12-01T16:22:17;47.67;;;21.57;;
6947;SDS011;3513;47.664;9.162;2022-12-01T16:24:52;39.97;;;20.80;;
6947;SDS011;3513;47.664;9.162;2022-12-01T16:32:22;46.40;;;21.00;;
6947;SDS011;3513;47.664;9.162;2022-12-01T16:34:58;50.80;;;23.03;;
6947;SDS011;3513;47.664;9.162;2022-12-01T16:37:23;45.97;;;21.13;;
6947;SDS011;3513;47.664;9.162;2022-12-01T16:39:51;46.40;;;21.20;;
6947;SDS011;3513;47.664;9.162;2022-12-01T16:42:17;42.53;;;20.97;;
6947;SDS011;3513;47.664;9.162;2022-12-01T16:44:45;38.57;;;19.10;;
6947;SDS011;3513;47.664;9.162;2022-12-01T16:47:17;48.37;;;21.80;;
6947;SDS011;3513;47.664;9.162;2022-12-01T16:49:44;44.27;;;20.57;;
6947;SDS011;3513;47.664;9.162;2022-12-01T16:52:10;39.03;;;19.17;;
6947;SDS011;3513;47.664;9.162;2022-12-01T16:54:36;40.07;;;19.70;;
6947;SDS011;3513;47.664;9.162;2022-12-01T16:57:02;38.87;;;19.00;;
6947;SDS011;3513;47.664;9.162;2022-12-01T16:59:27;38.23;;;18.67;;
6947;SDS011;3513;47.664;9.162;2022-12-01T17:01:53;43.27;;;19.40;;
6947;SDS011;3513;47.664;9.162;2022-12-01T17:04:18;40.37;;;18.97;;
6947;SDS011;3513;47.664;9.162;2022-12-01T17:06:44;36.87;;;18.90;;
6947;SDS011;3513;47.664;9.162;2022-12-01T17:09:09;36.70;;;19.60;;
6947;SDS011;3513;47.664;9.162;2022-12-01T17:11:35;42.67;;;20.10;;
6947;SDS011;3513;47.664;9.162;2022-12-01T17:14:01;47.90;;;22.37;;
6947;SDS011;3513;47.664;9.162;2022-12-01T17:16:26;40.20;;;20.03;;
6947;SDS011;3513;47.664;9.162;2022-12-01T17:18:52;41.43;;;18.67;;
6947;SDS011;3513;47.664;9.162;2022-12-01T17:21:17;44.70;;;21.40;;
6947;SDS011;3513;47.664;9.162;2022-12-01T17:23:43;40.37;;;19.77;;